createdAt,value
2022-11-22T00:03:00.892Z,-3.17
2022-11-22T00:06:05.666Z,-2.92
2022-11-22T00:09:09.820Z,-3.20
2022-11-22T00:12:14.326Z,-2.62
2022-11-22T00:15:18.965Z,-2.77
2022-11-22T00:18:23.253Z,-1.88
2022-11-22T00:21:27.566Z,-2.39
2022-11-22T00:24:32.023Z,-1.90
2022-11-22T00:27:37.136Z,-1.18
2022-11-22T00:30:41.945Z,-0.99
2022-11-22T00:33:46.188Z,-1.26
2022-11-22T00:36:50.329Z,-1.32
2022-11-22T00:39:54.695Z,-1.90
2022-11-22T00:42:58.986Z,-1.21
2022-11-22T00:46:03.414Z,-1.24
2022-11-22T00:49:07.562Z,-1.18
2022-11-22T00:52:11.990Z,-1.36
2022-11-22T00:55:16.347Z,-1.32
2022-11-22T00:58:20.698Z,-1.51
2022-11-22T01:01:26.609Z,-1.03
2022-11-22T01:04:31.163Z,-0.73
2022-11-22T01:07:35.813Z,-1.07
2022-11-22T01:10:40.001Z,-1.02
2022-11-22T01:13:44.615Z,-1.49
2022-11-22T01:16:49.488Z,-1.49
2022-11-22T01:19:53.996Z,-1.57
2022-11-22T01:22:59.745Z,-1.68
2022-11-22T01:26:04.093Z,-0.90
2022-11-22T01:29:08.636Z,-2.38
2022-11-22T01:32:12.856Z,-2.25
2022-11-22T01:35:17.409Z,-1.80
2022-11-22T01:38:21.560Z,-1.45
2022-11-22T01:41:25.932Z,-2.07
2022-11-22T01:44:34.109Z,-2.36
2022-11-22T01:47:38.653Z,-2.75
2022-11-22T01:50:46.116Z,-2.47
2022-11-22T01:53:50.749Z,-2.56
2022-11-22T01:57:01.857Z,-2.26
2022-11-22T02:00:11.487Z,-1.94
2022-11-22T02:03:23.735Z,-2.00
2022-11-22T02:06:35.601Z,-2.38
2022-11-22T02:09:42.190Z,-2.72
2022-11-22T02:12:47.052Z,-2.71
2022-11-22T02:15:53.512Z,-2.92
2022-11-22T02:18:57.728Z,-3.45
2022-11-22T02:22:11.710Z,-3.32
2022-11-22T02:25:20.835Z,-3.12
2022-11-22T02:28:26.536Z,-3.14
2022-11-22T02:31:41.035Z,-2.70
2022-11-22T02:34:50.584Z,-2.66
2022-11-22T02:38:19.108Z,-3.05
2022-11-22T02:41:23.357Z,-3.10
2022-11-22T02:44:28.628Z,-3.28
2022-11-22T02:47:32.970Z,-2.98
2022-11-22T02:50:37.954Z,-2.78
2022-11-22T02:53:42.390Z,-2.97
2022-11-22T02:56:46.727Z,-3.00
2022-11-22T02:59:50.927Z,-3.03
2022-11-22T03:02:56.002Z,-2.69
2022-11-22T03:06:00.562Z,-2.73
2022-11-22T03:09:05.315Z,-2.40
2022-11-22T03:12:11.548Z,-2.64
2022-11-22T03:15:21.010Z,-2.73
2022-11-22T03:18:25.623Z,-2.71
2022-11-22T03:21:30.565Z,-2.76
2022-11-22T03:24:35.296Z,-2.71
2022-11-22T03:27:40.342Z,-2.84
2022-11-22T03:30:44.998Z,-2.86
2022-11-22T03:33:49.476Z,-2.71
2022-11-22T03:36:53.824Z,-2.88
2022-11-22T03:39:58.067Z,-3.12
2022-11-22T03:43:03.791Z,-2.98
2022-11-22T03:46:08.080Z,-2.72
2022-11-22T03:49:12.944Z,-3.18
2022-11-22T03:52:17.664Z,-2.76
2022-11-22T03:55:21.764Z,-2.79
2022-11-22T03:58:26.136Z,-2.96
2022-11-22T04:01:31.076Z,-2.74
2022-11-22T04:04:35.522Z,-2.99
2022-11-22T04:07:40.195Z,-3.09
2022-11-22T04:10:44.741Z,-3.08
2022-11-22T04:14:07.076Z,-2.67
2022-11-22T04:17:15.270Z,-2.71
2022-11-22T04:20:47.126Z,-2.84
2022-11-22T04:24:11.226Z,-3.07
2022-11-22T04:27:15.936Z,-2.88
2022-11-22T04:30:21.057Z,-2.71
2022-11-22T04:33:25.893Z,-2.84
2022-11-22T04:36:30.347Z,-2.77
2022-11-22T04:39:36.621Z,-2.71
2022-11-22T04:42:59.137Z,-2.68
2022-11-22T04:46:03.747Z,-2.73
2022-11-22T04:49:07.929Z,-2.62
2022-11-22T04:52:30.894Z,-2.54
2022-11-22T04:55:35.359Z,-2.68
2022-11-22T04:58:40.041Z,-2.91
2022-11-22T05:01:44.459Z,-3.09
2022-11-22T05:04:50.799Z,-2.86
2022-11-22T05:07:55.412Z,-2.92
2022-11-22T05:11:00.407Z,-2.78
2022-11-22T05:14:05.256Z,-3.02
2022-11-22T05:17:13.168Z,-3.04
2022-11-22T05:20:18.293Z,-2.94
2022-11-22T05:23:55.356Z,-3.15
2022-11-22T05:26:59.151Z,-3.13
2022-11-22T05:30:03.536Z,-3.11
2022-11-22T05:33:07.975Z,-3.27
2022-11-22T05:36:13.633Z,-2.80
2022-11-22T05:39:18.024Z,-3.06
2022-11-22T05:42:22.950Z,-3.02
2022-11-22T05:45:27.786Z,-2.86
2022-11-22T05:48:32.409Z,-3.07
2022-11-22T05:51:36.754Z,-3.10
2022-11-22T05:54:41.062Z,-2.77
2022-11-22T05:57:45.441Z,-2.83
2022-11-22T06:00:50.041Z,-2.95
2022-11-22T06:03:55.454Z,-2.94
2022-11-22T06:06:59.693Z,-3.12
2022-11-22T06:10:04.433Z,-3.08
2022-11-22T06:13:09.861Z,-3.04
2022-11-22T06:16:16.484Z,-2.79
2022-11-22T06:19:21.026Z,-2.78
2022-11-22T06:22:25.194Z,-2.81
2022-11-22T06:25:29.483Z,-2.86
2022-11-22T06:28:35.283Z,-3.01
2022-11-22T06:31:39.178Z,-3.10
2022-11-22T06:34:43.697Z,-3.10
2022-11-22T06:37:49.734Z,-3.08
2022-11-22T06:40:53.913Z,-3.07
2022-11-22T06:43:58.510Z,-3.03
2022-11-22T06:47:03.145Z,-3.15
2022-11-22T06:50:08.240Z,-3.31
2022-11-22T06:53:32.295Z,-3.52
2022-11-22T06:56:42.233Z,-3.53
2022-11-22T06:59:46.688Z,-3.66
2022-11-22T07:02:51.011Z,-3.63
2022-11-22T07:05:56.379Z,-3.52
2022-11-22T07:09:02.592Z,-3.68
2022-11-22T07:12:07.499Z,-3.68
2022-11-22T07:15:12.429Z,-3.66
2022-11-22T07:18:16.864Z,-3.87
2022-11-22T07:21:25.629Z,-3.96
2022-11-22T07:24:31.112Z,-3.93
2022-11-22T07:27:35.294Z,-3.70
2022-11-22T07:30:43.883Z,-3.74
2022-11-22T07:33:49.061Z,-3.77
2022-11-22T07:36:59.671Z,-3.68
2022-11-22T07:40:06.448Z,-3.97
2022-11-22T07:43:10.797Z,-3.98
2022-11-22T07:46:30.570Z,-3.96
2022-11-22T07:49:34.731Z,-3.91
2022-11-22T07:52:39.855Z,-4.43
2022-11-22T07:55:44.126Z,-4.97
2022-11-22T07:58:48.593Z,-5.10
2022-11-22T08:01:53.002Z,-4.83
2022-11-22T08:04:57.371Z,-5.34
2022-11-22T08:08:01.629Z,-5.36
2022-11-22T08:11:07.669Z,-5.14
2022-11-22T08:14:13.185Z,-5.13
2022-11-22T08:17:17.661Z,-5.54
2022-11-22T08:20:22.005Z,-5.49
2022-11-22T08:23:26.514Z,-5.84
2022-11-22T08:26:30.758Z,-5.69
2022-11-22T08:29:35.682Z,-5.88
2022-11-22T08:32:40.290Z,-5.67
2022-11-22T08:35:44.845Z,-6.04
2022-11-22T08:38:49.204Z,-5.72
2022-11-22T08:41:53.613Z,-5.50
2022-11-22T08:44:57.742Z,-6.18
2022-11-22T08:48:02.116Z,-6.06
2022-11-22T08:51:13.479Z,-5.97
2022-11-22T08:54:18.136Z,-6.02
2022-11-22T08:57:22.547Z,-6.10
2022-11-22T09:00:32.935Z,-6.23
2022-11-22T09:03:38.624Z,-6.07
2022-11-22T09:10:11.733Z,-6.22
2022-11-22T09:13:17.063Z,-6.66
2022-11-22T09:16:22.302Z,-6.95
2022-11-22T09:19:27.194Z,-7.08
2022-11-22T09:22:35.416Z,-6.93
2022-11-22T09:25:40.313Z,-6.86
2022-11-22T09:28:45.427Z,-7.04
2022-11-22T09:31:50.607Z,-6.83
2022-11-22T09:34:55.130Z,-6.93
2022-11-22T09:37:59.660Z,-6.86
2022-11-22T09:41:25.407Z,-7.24
2022-11-22T09:44:48.534Z,-7.34
2022-11-22T09:48:22.032Z,-7.60
2022-11-22T09:51:35.679Z,-7.77
2022-11-22T09:55:05.908Z,-7.54
2022-11-22T09:58:32.633Z,-7.58
2022-11-22T10:02:18.256Z,-7.42
2022-11-22T10:05:30.824Z,-7.51
2022-11-22T10:08:58.688Z,-7.71
2022-11-22T10:12:24.141Z,-7.82
2022-11-22T10:15:49.316Z,-8.03
2022-11-22T10:19:09.539Z,-7.94
2022-11-22T10:22:16.075Z,-8.14
2022-11-22T10:25:47.038Z,-7.80
2022-11-22T10:29:32.166Z,-8.19
2022-11-22T10:32:50.716Z,-8.43
2022-11-22T10:36:10.529Z,-8.17
2022-11-22T10:39:21.034Z,-8.46
2022-11-22T10:43:03.718Z,-8.83
2022-11-22T10:46:25.230Z,-8.49
2022-11-22T10:49:53.820Z,-8.49
2022-11-22T10:53:24.610Z,-8.57
2022-11-22T10:56:35.949Z,-8.69
2022-11-22T10:59:56.604Z,-8.75
2022-11-22T11:03:28.196Z,-8.72
2022-11-22T11:07:04.579Z,-9.74
2022-11-22T11:10:29.285Z,-8.88
2022-11-22T11:13:43.377Z,-9.21
2022-11-22T11:16:48.334Z,-9.13
2022-11-22T11:19:56.472Z,-9.12
2022-11-22T11:23:16.750Z,-9.36
2022-11-22T11:26:29.586Z,-9.18
2022-11-22T11:29:42.562Z,-8.96
2022-11-22T11:32:57.887Z,-8.77
2022-11-22T11:36:17.622Z,-9.09
2022-11-22T11:39:26.709Z,-9.22
2022-11-22T11:42:34.189Z,-9.27
2022-11-22T11:45:38.468Z,-9.16
2022-11-22T11:48:44.375Z,-9.16
2022-11-22T11:51:54.513Z,-8.97
2022-11-22T11:55:04.253Z,-8.84
2022-11-22T11:58:35.130Z,-8.91
2022-11-22T12:02:15.852Z,-9.30
2022-11-22T12:05:20.379Z,-9.49
2022-11-22T12:08:33.264Z,-9.30
2022-11-22T12:11:49.917Z,-9.09
2022-11-22T12:15:36.741Z,-9.07
2022-11-22T12:18:51.485Z,-9.08
2022-11-22T12:22:29.349Z,-9.49
2022-11-22T12:25:43.567Z,-9.79
2022-11-22T12:28:50.117Z,-9.89
2022-11-22T12:32:28.418Z,-9.62
2022-11-22T12:35:45.158Z,-9.83
2022-11-22T12:38:54.053Z,-10.07
2022-11-22T12:42:24.546Z,-10.04
2022-11-22T12:45:40.962Z,-10.12
2022-11-22T12:49:06.879Z,-10.15
2022-11-22T12:52:34.110Z,-10.18
2022-11-22T12:56:26.148Z,-9.90
2022-11-22T13:00:15.508Z,-9.76
2022-11-22T13:03:31.358Z,-9.69
2022-11-22T13:06:46.469Z,-9.89
2022-11-22T13:10:04.790Z,-10.02
2022-11-22T13:13:29.147Z,-10.35
2022-11-22T13:16:34.894Z,-10.61
2022-11-22T13:19:58.526Z,-10.65
2022-11-22T13:23:21.474Z,-10.48
2022-11-22T13:26:44.515Z,-10.48
2022-11-22T13:29:53.560Z,-10.39
2022-11-22T13:33:00.921Z,-10.14
2022-11-22T13:36:27.068Z,-9.96
2022-11-22T13:39:31.514Z,-10.13
2022-11-22T13:42:36.738Z,-10.18
2022-11-22T13:46:04.956Z,-10.80
2022-11-22T13:49:33.879Z,-10.75
2022-11-22T13:52:54.218Z,-10.44
2022-11-22T13:56:20.427Z,-10.48
2022-11-22T13:59:24.744Z,-10.29
2022-11-22T14:02:29.218Z,-10.59
2022-11-22T14:05:38.084Z,-10.61
2022-11-22T14:08:45.721Z,-10.99
2022-11-22T14:12:12.096Z,-11.04
2022-11-22T14:15:56.992Z,-10.77
2022-11-22T14:19:21.862Z,-10.93
2022-11-22T14:22:35.078Z,-10.57
2022-11-22T14:25:57.844Z,-10.46
2022-11-22T14:29:35.642Z,-10.70
2022-11-22T14:32:44.617Z,-10.58
2022-11-22T14:36:07.564Z,-10.72
2022-11-22T14:39:46.337Z,-11.00
2022-11-22T14:42:54.471Z,-11.16
2022-11-22T14:46:51.253Z,-11.34
2022-11-22T14:49:54.533Z,-11.24
2022-11-22T14:53:20.108Z,-11.17
2022-11-22T14:56:29.370Z,-11.15
2022-11-22T14:59:58.299Z,-10.99
2022-11-22T15:03:12.856Z,-10.78
2022-11-22T15:09:20.093Z,-10.64
2022-11-22T15:10:16.911Z,-10.79
2022-11-22T15:13:31.381Z,-10.79
2022-11-22T15:58:23.223Z,-11.32
2022-11-22T16:01:28.557Z,-11.52
2022-11-22T16:04:37.789Z,-11.59
2022-11-22T16:07:48.443Z,-11.62
2022-11-22T16:10:53.222Z,-11.83
2022-11-22T16:13:57.838Z,-11.63
2022-11-22T16:17:24.623Z,-11.54
2022-11-22T16:20:32.179Z,-11.50
2022-11-22T16:23:38.394Z,-11.41
2022-11-22T16:26:44.151Z,-11.45
2022-11-22T16:29:52.295Z,-11.47
2022-11-22T16:32:59.392Z,-11.42
2022-11-22T16:36:06.702Z,-11.44
2022-11-22T16:39:11.506Z,-11.83
2022-11-22T16:42:16.086Z,-12.07
2022-11-22T16:45:22.819Z,-11.91
2022-11-22T16:48:33.240Z,-12.00
2022-11-22T16:51:38.566Z,-12.03
2022-11-22T16:54:43.270Z,-11.97
2022-11-22T16:57:48.099Z,-11.83
2022-11-22T17:00:54.928Z,-11.72
2022-11-22T17:04:01.645Z,-11.85
2022-11-22T17:07:13.926Z,-11.63
2022-11-22T17:10:19.033Z,-11.83
2022-11-22T17:13:26.727Z,-11.93
2022-11-22T17:16:31.464Z,-12.16
2022-11-22T17:19:52.697Z,-12.32
2022-11-22T17:22:58.646Z,-12.43
2022-11-22T17:26:06.297Z,-12.53
2022-11-22T17:29:18.296Z,-12.11
2022-11-22T17:32:36.073Z,-12.62
2022-11-22T17:35:41.048Z,-12.92
2022-11-22T17:38:45.686Z,-12.62
2022-11-22T17:41:50.913Z,-12.31
2022-11-22T17:44:55.295Z,-12.40
2022-11-22T17:48:00.134Z,-12.30
2022-11-22T17:51:12.723Z,-12.05
2022-11-22T17:54:17.337Z,-11.94
2022-11-22T17:57:22.184Z,-12.15
2022-11-22T18:00:30.013Z,-12.61
2022-11-22T18:03:35.394Z,-12.62
2022-11-22T18:06:39.883Z,-12.68
2022-11-22T18:09:44.161Z,-12.63
2022-11-22T18:13:13.646Z,-12.49
2022-11-22T18:16:19.293Z,-12.09
2022-11-22T18:19:24.486Z,-12.02
2022-11-22T18:22:29.461Z,-12.36
2022-11-22T18:25:33.879Z,-12.55
2022-11-22T18:28:40.595Z,-12.88
2022-11-22T18:31:52.086Z,-12.74
2022-11-22T18:34:57.158Z,-12.84
2022-11-22T18:38:02.027Z,-12.65
2022-11-22T18:41:06.736Z,-12.53
2022-11-22T18:44:11.039Z,-12.53
2022-11-22T18:47:15.982Z,-12.59
2022-11-22T18:50:20.583Z,-12.40
2022-11-22T18:53:26.867Z,-12.34
2022-11-22T18:56:31.348Z,-12.04
2022-11-22T18:59:36.017Z,-12.58
2022-11-22T19:02:40.502Z,-12.76
2022-11-22T19:05:46.047Z,-12.80
2022-11-22T19:08:50.464Z,-12.78
2022-11-22T19:11:58.785Z,-12.72
2022-11-22T19:15:03.282Z,-12.54
2022-11-22T19:18:10.471Z,-12.58
2022-11-22T19:21:17.279Z,-12.40
2022-11-22T19:24:21.713Z,-12.38
2022-11-22T19:27:26.081Z,-12.57
2022-11-22T19:30:30.383Z,-12.69
2022-11-22T19:33:41.446Z,-12.70
2022-11-22T19:36:45.895Z,-12.56
2022-11-22T19:39:50.637Z,-12.73
2022-11-22T19:42:55.115Z,-12.89
2022-11-22T19:46:02.743Z,-13.09
2022-11-22T19:49:07.602Z,-13.05
2022-11-22T19:52:12.325Z,-12.77
2022-11-22T19:55:16.835Z,-12.61
2022-11-22T19:58:21.320Z,-12.39
2022-11-22T20:01:28.195Z,-12.39
2022-11-22T20:04:32.859Z,-12.64
2022-11-22T20:07:38.018Z,-12.74
2022-11-22T20:10:43.452Z,-12.60
2022-11-22T20:13:51.132Z,-12.64
2022-11-22T20:16:55.549Z,-12.64
2022-11-22T20:20:00.251Z,-12.56
2022-11-22T20:23:04.618Z,-12.98
2022-11-22T20:26:11.471Z,-12.64
2022-11-22T20:29:16.926Z,-12.57
2022-11-22T20:32:21.596Z,-12.59
2022-11-22T20:35:26.081Z,-12.88
2022-11-22T20:38:33.620Z,-12.85
2022-11-22T20:41:38.979Z,-12.71
2022-11-22T20:44:43.432Z,-12.77
2022-11-22T20:47:47.786Z,-13.23
2022-11-22T20:50:53.261Z,-13.62
2022-11-22T20:53:58.839Z,-13.53
2022-11-22T20:57:03.226Z,-13.46
2022-11-22T21:00:08.543Z,-13.69
2022-11-22T21:03:12.867Z,-13.86
2022-11-22T21:06:20.140Z,-13.42
2022-11-22T21:09:24.596Z,-13.42
2022-11-22T21:12:28.837Z,-13.24
2022-11-22T21:15:33.309Z,-12.89
2022-11-22T21:18:37.800Z,-12.77
2022-11-22T21:21:42.233Z,-13.26
2022-11-22T21:24:46.485Z,-13.31
2022-11-22T21:27:50.864Z,-13.07
2022-11-22T21:30:59.179Z,-13.13
2022-11-22T21:34:03.417Z,-13.22
2022-11-22T21:37:07.943Z,-13.30
2022-11-22T21:40:13.565Z,-13.66
2022-11-22T21:43:17.939Z,-13.89
2022-11-22T21:46:22.093Z,-13.89
2022-11-22T21:49:26.659Z,-13.72
2022-11-22T21:52:32.902Z,-13.35
2022-11-22T21:55:37.031Z,-13.06
2022-11-22T21:58:41.279Z,-13.17
2022-11-22T22:01:45.718Z,-13.00
2022-11-22T22:04:50.013Z,-13.21
2022-11-22T22:07:54.624Z,-13.13
2022-11-22T22:10:59.702Z,-13.02
2022-11-22T22:14:04.278Z,-13.13
2022-11-22T22:17:08.600Z,-13.29
2022-11-22T22:20:13.227Z,-13.06
2022-11-22T22:23:17.500Z,-13.04
2022-11-22T22:26:21.877Z,-12.95
2022-11-22T22:29:26.137Z,-13.03
2022-11-22T22:32:30.247Z,-13.24
2022-11-22T22:35:34.716Z,-13.22
2022-11-22T22:38:39.545Z,-13.29
2022-11-22T22:41:43.877Z,-13.32
2022-11-22T22:44:48.335Z,-13.54
2022-11-22T22:47:52.721Z,-13.56
2022-11-22T22:50:56.969Z,-13.34
2022-11-22T22:54:02.220Z,-13.11
2022-11-22T22:57:06.562Z,-13.03
2022-11-22T23:00:14.376Z,-13.64
2022-11-22T23:03:18.619Z,-13.36
2022-11-22T23:06:23.564Z,-12.84
2022-11-22T23:09:28.028Z,-13.39
2022-11-22T23:12:32.340Z,-12.74
2022-11-22T23:15:57.427Z,-11.96
2022-11-22T23:19:02.783Z,-11.27
2022-11-22T23:22:07.509Z,-10.78
2022-11-22T23:25:11.830Z,-10.77
2022-11-22T23:28:16.594Z,-10.95
2022-11-22T23:31:21.861Z,-10.54
2022-11-22T23:34:26.518Z,-9.99
2022-11-22T23:37:30.610Z,-9.55
2022-11-22T23:40:34.770Z,-9.18
2022-11-22T23:43:39.109Z,-8.56
2022-11-22T23:46:43.459Z,-8.50
2022-11-22T23:49:47.707Z,-8.52
2022-11-22T23:52:57.607Z,-8.38
2022-11-22T23:56:15.863Z,-8.72
2022-11-22T23:59:22.502Z,-8.82
